createdAt,value
2022-08-26T00:01:30.521Z,9.75
2022-08-26T00:03:57.149Z,10.25
2022-08-26T00:06:24.699Z,10.32
2022-08-26T00:08:51.394Z,9.68
2022-08-26T00:11:26.663Z,8.45
2022-08-26T00:13:54.770Z,17.00
2022-08-26T00:16:22.349Z,11.70
2022-08-26T00:18:48.969Z,11.27
2022-08-26T00:21:16.032Z,10.30
2022-08-26T00:23:42.771Z,8.95
2022-08-26T00:26:09.549Z,9.20
2022-08-26T00:28:37.958Z,10.18
2022-08-26T00:31:07.167Z,8.77
2022-08-26T00:33:33.788Z,9.63
2022-08-26T00:36:00.667Z,9.40
2022-08-26T00:38:27.542Z,12.50
2022-08-26T00:40:55.747Z,15.10
2022-08-26T00:43:23.938Z,13.43
2022-08-26T00:45:51.887Z,12.32
2022-08-26T00:48:19.955Z,12.93
2022-08-26T00:50:55.994Z,10.38
2022-08-26T00:53:24.196Z,9.90
2022-08-26T00:56:16.677Z,15.35
2022-08-26T00:58:45.387Z,11.75
2022-08-26T01:01:17.107Z,11.15
2022-08-26T01:03:43.948Z,11.75
2022-08-26T01:06:12.556Z,12.25
2022-08-26T01:08:40.249Z,10.07
2022-08-26T01:11:07.426Z,9.02
2022-08-26T01:13:34.014Z,9.07
2022-08-26T01:16:02.868Z,9.48
2022-08-26T01:18:29.791Z,9.55
2022-08-26T01:21:06.210Z,12.52
2022-08-26T01:23:39.257Z,13.25
2022-08-26T01:26:19.636Z,13.02
2022-08-26T01:28:51.763Z,15.43
2022-08-26T01:31:20.742Z,13.10
2022-08-26T01:33:59.485Z,11.95
2022-08-26T01:36:26.602Z,10.80
2022-08-26T01:38:53.357Z,10.45
2022-08-26T01:41:27.139Z,11.27
2022-08-26T01:43:54.760Z,12.27
2022-08-26T01:46:22.657Z,17.27
2022-08-26T01:48:49.624Z,11.93
2022-08-26T01:51:21.144Z,11.48
2022-08-26T01:53:47.745Z,12.60
2022-08-26T01:56:16.406Z,12.85
2022-08-26T01:58:48.766Z,12.90
2022-08-26T02:01:15.458Z,13.02
2022-08-26T02:03:56.103Z,14.90
2022-08-26T02:06:23.873Z,12.20
2022-08-26T02:08:53.176Z,11.85
2022-08-26T02:11:21.285Z,14.63
2022-08-26T02:13:56.544Z,12.20
2022-08-26T02:16:24.911Z,11.35
2022-08-26T02:18:52.767Z,11.02
2022-08-26T02:21:20.057Z,11.88
2022-08-26T02:23:47.605Z,10.23
2022-08-26T02:26:19.170Z,9.40
2022-08-26T02:29:25.311Z,10.95
2022-08-26T02:34:23.910Z,9.75
2022-08-26T02:36:57.132Z,10.45
2022-08-26T02:39:24.044Z,17.00
2022-08-26T02:41:50.645Z,12.90
2022-08-26T02:44:17.593Z,9.82
2022-08-26T02:46:46.825Z,9.73
2022-08-26T02:49:13.976Z,11.93
2022-08-26T02:51:40.742Z,13.70
2022-08-26T02:54:09.689Z,11.27
2022-08-26T02:56:36.494Z,10.45
2022-08-26T02:59:03.366Z,8.68
2022-08-26T03:01:32.516Z,9.32
2022-08-26T03:03:59.969Z,9.88
2022-08-26T03:06:26.657Z,9.55
2022-08-26T03:08:53.370Z,10.20
2022-08-26T03:11:20.097Z,9.85
2022-08-26T03:13:48.730Z,9.55
2022-08-26T03:16:15.413Z,11.35
2022-08-26T03:18:42.405Z,12.20
2022-08-26T03:21:11.194Z,11.52
2022-08-26T03:23:38.465Z,10.27
2022-08-26T03:26:05.690Z,9.57
2022-08-26T03:28:32.477Z,12.98
2022-08-26T03:30:59.378Z,10.05
2022-08-26T03:33:26.226Z,10.20
2022-08-26T03:35:53.211Z,9.52
2022-08-26T03:38:21.013Z,16.33
2022-08-26T03:40:47.839Z,13.05
2022-08-26T03:43:14.725Z,13.80
2022-08-26T03:45:41.443Z,16.52
2022-08-26T03:48:09.299Z,13.77
2022-08-26T03:50:36.039Z,13.95
2022-08-26T03:53:02.939Z,11.55
2022-08-26T03:55:32.013Z,10.35
2022-08-26T03:57:59.472Z,10.70
2022-08-26T04:00:26.250Z,10.07
2022-08-26T04:02:53.405Z,9.68
2022-08-26T04:05:20.834Z,10.75
2022-08-26T04:07:47.925Z,25.65
2022-08-26T04:10:20.249Z,14.90
2022-08-26T04:12:47.250Z,14.57
2022-08-26T04:15:15.196Z,12.90
2022-08-26T04:17:42.096Z,10.45
2022-08-26T04:20:09.368Z,9.63
2022-08-26T04:22:36.155Z,9.27
2022-08-26T04:25:02.815Z,9.95
2022-08-26T04:27:33.822Z,9.43
2022-08-26T04:30:01.141Z,9.55
2022-08-26T04:32:27.760Z,10.07
2022-08-26T04:34:54.389Z,11.20
2022-08-26T04:37:21.781Z,11.20
2022-08-26T04:39:53.199Z,12.48
2022-08-26T04:42:25.896Z,10.63
2022-08-26T04:44:53.048Z,9.38
2022-08-26T04:47:19.688Z,8.60
2022-08-26T04:49:46.286Z,9.50
2022-08-26T04:52:13.018Z,8.77
2022-08-26T04:54:39.647Z,9.88
2022-08-26T04:57:08.673Z,10.40
2022-08-26T04:59:39.055Z,9.48
2022-08-26T05:02:06.875Z,11.75
2022-08-26T05:04:33.703Z,9.20
2022-08-26T05:07:02.734Z,8.02
2022-08-26T05:09:31.840Z,8.48
2022-08-26T05:12:08.078Z,8.52
2022-08-26T05:14:35.739Z,10.50
2022-08-26T05:17:02.886Z,11.63
2022-08-26T05:19:30.077Z,8.98
2022-08-26T05:21:56.706Z,9.50
2022-08-26T05:24:23.505Z,8.02
2022-08-26T05:26:50.203Z,7.68
2022-08-26T05:29:17.888Z,7.20
2022-08-26T05:31:44.651Z,8.05
2022-08-26T05:34:11.698Z,7.28
2022-08-26T05:36:39.168Z,7.50
2022-08-26T05:39:06.237Z,8.60
2022-08-26T05:41:36.510Z,7.60
2022-08-26T05:44:05.952Z,6.07
2022-08-26T05:46:32.766Z,6.75
2022-08-26T05:49:01.120Z,6.45
2022-08-26T05:51:27.800Z,6.25
2022-08-26T05:53:57.195Z,6.13
2022-08-26T05:56:26.195Z,7.13
2022-08-26T05:58:52.994Z,9.32
2022-08-26T06:01:24.236Z,14.60
2022-08-26T06:03:54.855Z,17.65
2022-08-26T06:06:29.184Z,12.82
2022-08-26T06:08:59.153Z,10.40
2022-08-26T06:11:26.143Z,9.00
2022-08-26T06:14:03.745Z,7.40
2022-08-26T06:16:31.161Z,5.97
2022-08-26T06:18:57.967Z,5.90
2022-08-26T06:21:25.817Z,4.63
2022-08-26T06:24:13.286Z,4.65
2022-08-26T06:26:42.802Z,4.18
2022-08-26T06:29:09.712Z,4.63
2022-08-26T06:31:36.577Z,4.10
2022-08-26T06:34:09.913Z,4.35
2022-08-26T06:36:38.136Z,4.60
2022-08-26T06:39:10.184Z,4.85
2022-08-26T06:41:41.435Z,4.40
2022-08-26T06:44:10.046Z,5.40
2022-08-26T06:46:37.213Z,4.85
2022-08-26T06:49:04.696Z,4.95
2022-08-26T06:51:33.204Z,4.93
2022-08-26T06:54:01.711Z,4.97
2022-08-26T06:56:32.483Z,5.18
2022-08-26T06:58:59.175Z,5.13
2022-08-26T07:01:37.432Z,5.30
2022-08-26T07:04:10.437Z,6.00
2022-08-26T07:06:39.110Z,5.53
2022-08-26T07:09:06.749Z,5.97
2022-08-26T07:11:37.345Z,6.43
2022-08-26T07:14:04.555Z,6.95
2022-08-26T07:16:31.436Z,6.10
2022-08-26T07:18:59.996Z,6.35
2022-08-26T07:21:30.077Z,5.68
2022-08-26T07:24:00.544Z,6.38
2022-08-26T07:26:29.063Z,7.00
2022-08-26T07:28:56.484Z,6.38
2022-08-26T07:31:24.820Z,7.05
2022-08-26T07:33:51.670Z,6.50
2022-08-26T07:36:19.388Z,6.30
2022-08-26T07:38:46.123Z,6.68
2022-08-26T07:41:14.244Z,6.90
2022-08-26T07:43:41.153Z,5.72
2022-08-26T07:46:07.917Z,7.78
2022-08-26T07:48:38.920Z,6.63
2022-08-26T07:51:06.112Z,7.05
2022-08-26T07:53:35.002Z,7.05
2022-08-26T07:56:01.677Z,7.63
2022-08-26T07:58:29.040Z,7.20
2022-08-26T08:00:55.711Z,6.90
2022-08-26T08:03:22.576Z,7.22
2022-08-26T08:05:49.297Z,6.15
2022-08-26T08:08:26.856Z,7.28
2022-08-26T08:10:55.426Z,6.93
2022-08-26T08:13:22.579Z,7.32
2022-08-26T08:15:50.431Z,7.18
2022-08-26T08:18:18.197Z,7.30
2022-08-26T08:20:59.208Z,7.47
2022-08-26T08:23:32.908Z,7.53
2022-08-26T08:26:17.945Z,7.45
2022-08-26T08:28:47.734Z,7.40
2022-08-26T08:31:52.092Z,7.85
2022-08-26T08:34:10.558Z,8.23
2022-08-26T08:36:37.182Z,7.75
2022-08-26T08:39:04.044Z,8.05
2022-08-26T08:42:16.133Z,8.48
2022-08-26T08:44:45.528Z,9.55
2022-08-26T08:47:26.035Z,8.55
2022-08-26T08:49:53.577Z,9.05
2022-08-26T08:52:29.289Z,8.50
2022-08-26T08:54:56.026Z,8.65
2022-08-26T08:57:32.940Z,8.20
2022-08-26T09:00:19.789Z,8.18
2022-08-26T09:03:03.808Z,8.63
2022-08-26T09:05:35.745Z,9.23
2022-08-26T09:08:03.719Z,8.70
2022-08-26T09:10:40.619Z,8.82
2022-08-26T09:13:16.964Z,9.85
2022-08-26T09:15:57.877Z,9.43
2022-08-26T09:18:33.635Z,9.20
2022-08-26T09:21:03.509Z,8.90
2022-08-26T09:23:31.022Z,9.45
2022-08-26T09:26:02.404Z,9.73
2022-08-26T09:28:30.049Z,9.15
2022-08-26T09:31:11.217Z,9.50
2022-08-26T09:33:38.790Z,9.32
2022-08-26T09:36:41.278Z,10.27
2022-08-26T09:39:27.793Z,11.30
2022-08-26T09:42:11.800Z,10.35
2022-08-26T09:44:58.191Z,11.15
2022-08-26T09:47:32.731Z,10.50
2022-08-26T09:50:09.382Z,11.18
2022-08-26T09:52:36.689Z,11.57
2022-08-26T09:55:12.794Z,10.65
2022-08-26T09:57:49.618Z,11.75
2022-08-26T10:00:42.344Z,9.70
2022-08-26T10:03:17.288Z,10.85
2022-08-26T10:05:58.603Z,12.45
2022-08-26T10:08:37.587Z,11.02
2022-08-26T10:11:07.720Z,12.40
2022-08-26T10:13:36.810Z,12.25
2022-08-26T10:16:07.844Z,10.23
2022-08-26T10:19:00.306Z,12.80
2022-08-26T10:21:39.725Z,11.85
2022-08-26T10:24:07.355Z,10.95
2022-08-26T10:26:59.948Z,9.88
2022-08-26T10:29:34.286Z,10.88
2022-08-26T10:32:04.880Z,11.02
2022-08-26T10:34:32.596Z,9.93
2022-08-26T10:37:14.280Z,10.13
2022-08-26T10:39:53.038Z,10.30
2022-08-26T10:42:51.477Z,9.73
2022-08-26T10:45:20.186Z,10.63
2022-08-26T10:48:00.959Z,11.45
2022-08-26T10:50:38.694Z,13.32
2022-08-26T10:53:32.900Z,10.77
2022-08-26T10:56:15.689Z,11.27
2022-08-26T10:59:24.774Z,10.35
2022-08-26T11:02:06.459Z,11.02
2022-08-26T11:04:34.958Z,11.93
2022-08-26T11:07:40.545Z,9.63
2022-08-26T11:10:12.967Z,10.90
2022-08-26T11:12:39.609Z,10.30
2022-08-26T11:15:14.716Z,10.23
2022-08-26T11:17:45.087Z,9.85
2022-08-26T11:20:13.498Z,10.13
2022-08-26T11:22:48.021Z,11.18
2022-08-26T11:25:29.286Z,9.63
2022-08-26T11:28:00.650Z,10.77
2022-08-26T11:30:33.486Z,10.30
2022-08-26T11:33:00.300Z,8.68
2022-08-26T11:35:26.811Z,10.50
2022-08-26T11:38:05.806Z,9.95
2022-08-26T11:40:35.450Z,8.95
2022-08-26T11:43:02.444Z,8.45
2022-08-26T11:45:39.451Z,9.25
2022-08-26T11:48:19.088Z,9.10
2022-08-26T11:51:01.874Z,9.82
2022-08-26T11:53:33.484Z,8.20
2022-08-26T11:56:02.002Z,7.20
2022-08-26T11:58:28.691Z,7.22
2022-08-26T12:01:00.472Z,6.82
2022-08-26T12:03:47.482Z,6.45
2022-08-26T12:06:31.248Z,7.93
2022-08-26T12:09:03.449Z,7.70
2022-08-26T12:11:34.561Z,6.88
2022-08-26T12:14:03.261Z,7.53
2022-08-26T12:16:32.170Z,7.78
2022-08-26T12:19:28.668Z,7.05
2022-08-26T12:22:04.903Z,7.43
2022-08-26T12:24:31.576Z,8.18
2022-08-26T12:27:28.893Z,7.22
2022-08-26T12:30:09.643Z,6.63
2022-08-26T12:32:57.332Z,6.78
2022-08-26T12:35:25.173Z,6.53
2022-08-26T12:37:52.147Z,7.22
2022-08-26T12:40:31.008Z,6.57
2022-08-26T12:43:00.471Z,6.45
2022-08-26T12:45:43.131Z,7.28
2022-08-26T12:48:26.166Z,7.65
2022-08-26T12:50:52.962Z,8.40
2022-08-26T12:53:23.582Z,7.60
2022-08-26T12:55:52.888Z,7.88
2022-08-26T12:58:27.227Z,7.97
2022-08-26T13:00:57.130Z,8.07
2022-08-26T13:03:33.790Z,7.10
2022-08-26T13:06:22.350Z,6.55
2022-08-26T13:08:59.587Z,7.05
2022-08-26T13:11:27.652Z,7.13
2022-08-26T13:14:08.847Z,6.97
2022-08-26T13:16:36.294Z,6.53
2022-08-26T13:19:10.417Z,6.70
2022-08-26T13:21:48.420Z,6.30
2022-08-26T13:24:20.933Z,5.95
2022-08-26T13:26:49.172Z,6.07
2022-08-26T13:29:15.894Z,6.45
2022-08-26T13:31:44.226Z,6.30
2022-08-26T13:34:19.548Z,6.13
2022-08-26T13:36:47.268Z,6.35
2022-08-26T13:39:14.148Z,6.75
2022-08-26T13:41:40.944Z,7.15
2022-08-26T13:44:07.626Z,6.60
2022-08-26T13:46:34.427Z,6.47
2022-08-26T13:49:01.330Z,6.75
2022-08-26T13:51:28.277Z,5.85
2022-08-26T13:53:55.117Z,7.35
2022-08-26T13:56:21.941Z,6.70
2022-08-26T13:58:48.736Z,6.88
2022-08-26T14:01:16.489Z,5.90
2022-08-26T14:03:43.397Z,6.85
2022-08-26T14:06:10.220Z,7.05
2022-08-26T14:08:37.076Z,6.82
2022-08-26T14:11:03.785Z,7.05
2022-08-26T14:13:30.439Z,6.80
2022-08-26T14:15:59.696Z,7.10
2022-08-26T14:18:32.294Z,6.53
2022-08-26T14:20:59.304Z,7.38
2022-08-26T14:23:26.314Z,6.78
2022-08-26T14:25:57.058Z,7.05
2022-08-26T14:28:23.819Z,7.50
2022-08-26T14:30:55.326Z,7.38
2022-08-26T14:33:24.984Z,6.60
2022-08-26T14:35:51.703Z,7.07
2022-08-26T14:38:18.553Z,6.75
2022-08-26T14:40:45.425Z,7.05
2022-08-26T14:43:14.312Z,6.85
2022-08-26T14:48:14.288Z,7.13
2022-08-26T14:50:40.993Z,6.75
2022-08-26T14:53:26.204Z,8.15
2022-08-26T14:55:52.943Z,7.35
2022-08-26T14:58:19.593Z,6.63
2022-08-26T15:00:46.228Z,6.60
2022-08-26T15:05:47.997Z,7.00
2022-08-26T15:08:16.896Z,7.05
2022-08-26T15:10:43.709Z,6.50
2022-08-26T15:13:10.403Z,6.93
2022-08-26T15:15:38.051Z,7.68
2022-08-26T15:18:04.739Z,7.80
2022-08-26T15:23:06.209Z,6.85
2022-08-26T15:25:33.112Z,6.97
2022-08-26T15:27:59.833Z,6.78
2022-08-26T15:30:27.363Z,6.50
2022-08-26T15:32:54.042Z,6.82
2022-08-26T15:35:20.861Z,7.03
2022-08-26T15:37:47.565Z,6.55
2022-08-26T15:40:14.428Z,6.47
2022-08-26T15:42:41.260Z,7.03
2022-08-26T15:45:08.330Z,6.80
2022-08-26T15:47:35.482Z,7.07
2022-08-26T15:50:22.119Z,6.90
2022-08-26T15:52:48.954Z,6.80
2022-08-26T15:55:15.666Z,6.68
2022-08-26T15:57:42.345Z,7.20
2022-08-26T16:00:10.070Z,6.57
2022-08-26T16:02:36.745Z,7.50
2022-08-26T16:05:03.491Z,6.25
2022-08-26T16:07:31.493Z,6.53
2022-08-26T16:09:58.178Z,6.82
2022-08-26T16:12:24.866Z,6.25
2022-08-26T16:14:52.705Z,6.38
2022-08-26T16:17:19.714Z,6.72
2022-08-26T16:19:46.795Z,6.72
2022-08-26T16:22:13.456Z,5.05
2022-08-26T16:24:40.194Z,7.07
2022-08-26T16:27:06.981Z,6.55
2022-08-26T16:29:33.684Z,7.30
2022-08-26T16:32:00.615Z,6.40
2022-08-26T16:34:27.283Z,7.25
2022-08-26T16:36:54.082Z,6.53
2022-08-26T16:39:20.732Z,6.50
2022-08-26T16:41:47.471Z,6.10
2022-08-26T16:44:14.315Z,6.30
2022-08-26T16:46:41.289Z,6.32
2022-08-26T16:49:08.159Z,6.40
2022-08-26T16:51:38.155Z,6.93
2022-08-26T16:54:05.616Z,6.70
2022-08-26T16:56:34.532Z,6.15
2022-08-26T16:59:02.765Z,6.15
2022-08-26T17:01:29.554Z,5.97
2022-08-26T17:03:56.234Z,7.78
2022-08-26T17:06:23.172Z,7.38
2022-08-26T17:08:49.903Z,7.32
2022-08-26T17:11:16.801Z,8.32
2022-08-26T17:13:43.581Z,7.85
2022-08-26T17:16:11.102Z,6.47
2022-08-26T17:18:39.929Z,7.15
2022-08-26T17:21:08.747Z,6.50
2022-08-26T17:23:35.989Z,6.28
2022-08-26T17:26:02.886Z,5.97
2022-08-26T17:28:29.685Z,7.00
2022-08-26T17:31:11.471Z,6.95
2022-08-26T17:33:38.431Z,7.57
2022-08-26T17:36:06.147Z,8.23
2022-08-26T17:38:32.899Z,9.85
2022-08-26T17:40:59.512Z,8.25
2022-08-26T17:43:26.836Z,9.20
2022-08-26T17:46:07.031Z,10.10
2022-08-26T17:48:35.004Z,10.30
2022-08-26T17:51:09.299Z,7.75
2022-08-26T17:53:35.956Z,8.93
2022-08-26T17:56:04.995Z,11.05
2022-08-26T17:58:35.175Z,9.38
2022-08-26T18:01:02.166Z,8.77
2022-08-26T18:03:28.859Z,10.73
2022-08-26T18:05:55.486Z,8.45
2022-08-26T18:08:22.225Z,9.23
2022-08-26T18:10:49.010Z,9.52
2022-08-26T18:13:15.783Z,8.75
2022-08-26T18:15:43.557Z,8.70
2022-08-26T18:18:10.185Z,10.70
2022-08-26T18:20:38.226Z,9.27
2022-08-26T18:23:05.066Z,12.02
2022-08-26T18:25:34.530Z,12.43
2022-08-26T18:28:30.098Z,11.75
2022-08-26T18:30:58.986Z,11.55
2022-08-26T18:33:25.684Z,10.25
2022-08-26T18:35:52.890Z,10.35
2022-08-26T18:38:19.666Z,10.85
2022-08-26T18:40:46.508Z,10.52
2022-08-26T18:43:13.174Z,9.60
2022-08-26T18:46:02.469Z,11.35
2022-08-26T18:48:29.133Z,10.60
2022-08-26T18:50:55.804Z,10.30
2022-08-26T18:53:22.482Z,9.52
2022-08-26T18:55:49.153Z,12.27
2022-08-26T18:58:16.433Z,10.70
2022-08-26T19:00:43.018Z,10.15
2022-08-26T19:03:15.630Z,9.70
2022-08-26T19:05:45.834Z,9.18
2022-08-26T19:08:12.534Z,8.82
2022-08-26T19:10:39.293Z,8.80
2022-08-26T19:13:06.875Z,8.35
2022-08-26T19:15:37.716Z,9.18
2022-08-26T19:18:04.496Z,9.20
2022-08-26T19:20:31.114Z,9.63
2022-08-26T19:23:02.655Z,8.77
2022-08-26T19:25:42.118Z,8.45
2022-08-26T19:28:08.845Z,9.77
2022-08-26T19:30:42.818Z,9.93
2022-08-26T19:33:09.632Z,11.48
2022-08-26T19:35:36.327Z,10.63
2022-08-26T19:38:03.270Z,11.27
2022-08-26T19:40:30.002Z,9.15
2022-08-26T19:42:56.871Z,10.32
2022-08-26T19:45:25.191Z,9.07
2022-08-26T19:47:53.043Z,8.25
2022-08-26T19:50:19.931Z,8.63
2022-08-26T19:52:46.598Z,8.15
2022-08-26T19:55:17.278Z,8.32
2022-08-26T19:57:44.169Z,10.75
2022-08-26T20:00:12.399Z,9.88
2022-08-26T20:02:39.343Z,9.43
2022-08-26T20:05:07.439Z,9.38
2022-08-26T20:07:34.141Z,9.40
2022-08-26T20:10:01.060Z,9.43
2022-08-26T20:12:27.886Z,9.85
2022-08-26T20:14:55.088Z,10.05
2022-08-26T20:17:21.824Z,11.35
2022-08-26T20:20:33.741Z,10.15
2022-08-26T20:23:02.057Z,9.18
2022-08-26T20:25:28.753Z,11.23
2022-08-26T20:27:55.409Z,11.20
2022-08-26T20:30:22.382Z,9.77
2022-08-26T20:32:49.132Z,8.68
2022-08-26T20:35:16.178Z,8.27
2022-08-26T20:37:42.933Z,9.38
2022-08-26T20:40:10.813Z,9.60
2022-08-26T20:42:38.312Z,10.10
2022-08-26T20:45:06.794Z,10.52
2022-08-26T20:47:33.802Z,11.02
2022-08-26T20:50:00.581Z,10.65
2022-08-26T20:52:27.600Z,30.15
2022-08-26T20:54:54.321Z,13.52
2022-08-26T20:57:22.401Z,10.85
2022-08-26T20:59:49.428Z,10.23
2022-08-26T21:02:16.281Z,11.02
2022-08-26T21:04:43.215Z,9.95
2022-08-26T21:07:10.075Z,10.18
2022-08-26T21:09:36.724Z,10.30
2022-08-26T21:12:05.356Z,10.95
2022-08-26T21:14:32.043Z,12.88
2022-08-26T21:16:58.768Z,12.25
2022-08-26T21:19:25.475Z,11.57
2022-08-26T21:21:52.239Z,10.80
2022-08-26T21:24:18.946Z,11.13
2022-08-26T21:26:45.666Z,12.50
2022-08-26T21:29:13.646Z,11.50
2022-08-26T21:31:45.707Z,11.40
2022-08-26T21:34:14.473Z,12.13
2022-08-26T21:36:41.123Z,10.65
2022-08-26T21:39:11.467Z,10.02
2022-08-26T21:41:38.651Z,10.77
2022-08-26T21:44:05.335Z,11.23
2022-08-26T21:46:32.034Z,10.45
2022-08-26T21:49:00.278Z,10.20
2022-08-26T21:51:29.127Z,10.48
2022-08-26T21:53:56.660Z,10.80
2022-08-26T21:56:24.289Z,9.93
2022-08-26T21:58:52.567Z,10.70
2022-08-26T22:01:21.485Z,11.73
2022-08-26T22:03:48.953Z,12.80
2022-08-26T22:06:20.684Z,9.93
2022-08-26T22:08:47.809Z,10.40
2022-08-26T22:11:14.840Z,10.07
2022-08-26T22:13:42.274Z,9.77
2022-08-26T22:16:09.633Z,11.60
2022-08-26T22:18:36.780Z,9.88
2022-08-26T22:21:06.042Z,10.88
2022-08-26T22:23:32.800Z,10.50
2022-08-26T22:25:59.505Z,10.13
2022-08-26T22:28:26.205Z,9.50
2022-08-26T22:30:53.039Z,9.60
2022-08-26T22:33:19.836Z,9.70
2022-08-26T22:35:48.649Z,9.10
2022-08-26T22:38:15.560Z,9.10
2022-08-26T22:40:47.567Z,10.35
2022-08-26T22:43:14.358Z,9.90
2022-08-26T22:45:42.817Z,11.70
2022-08-26T22:48:10.108Z,10.45
2022-08-26T22:50:37.093Z,11.65
2022-08-26T22:53:03.923Z,10.57
2022-08-26T22:55:30.580Z,10.43
2022-08-26T22:57:57.633Z,10.90
2022-08-26T23:00:31.869Z,10.95
2022-08-26T23:02:59.802Z,11.70
2022-08-26T23:05:26.625Z,10.50
2022-08-26T23:07:54.083Z,10.80
2022-08-26T23:10:20.956Z,10.65
2022-08-26T23:12:47.646Z,10.90
2022-08-26T23:15:16.420Z,9.40
2022-08-26T23:17:45.183Z,11.45
2022-08-26T23:20:12.837Z,11.70
2022-08-26T23:22:39.830Z,10.52
2022-08-26T23:25:08.355Z,10.55
2022-08-26T23:27:37.880Z,14.20
2022-08-26T23:30:05.986Z,11.55
2022-08-26T23:32:32.796Z,11.05
2022-08-26T23:34:59.686Z,12.85
2022-08-26T23:37:33.888Z,12.32
2022-08-26T23:40:06.535Z,9.98
2022-08-26T23:42:36.167Z,12.10
2022-08-26T23:45:04.412Z,10.35
2022-08-26T23:47:31.097Z,8.95
2022-08-26T23:49:58.043Z,11.80
2022-08-26T23:52:43.151Z,10.50
2022-08-26T23:57:37.639Z,13.57
